sensor_id;sensor_type;location;lat;lon;timestamp;P1;P2;P0
70243;PMS7003;57634;51.136;17.024;2023-08-12T00:00:03;10;10;9
70243;PMS7003;57634;51.136;17.024;2023-08-12T00:03:17;11;11;9
70243;PMS7003;57634;51.136;17.024;2023-08-12T00:06:18;9;9;8
70243;PMS7003;57634;51.136;17.024;2023-08-12T00:09:19;7;7;6
70243;PMS7003;57634;51.136;17.024;2023-08-12T00:12:21;10;9;8
70243;PMS7003;57634;51.136;17.024;2023-08-12T00:15:22;9;9;7
70243;PMS7003;57634;51.136;17.024;2023-08-12T00:18:24;10;10;8
70243;PMS7003;57634;51.136;17.024;2023-08-12T00:21:26;10;10;8
70243;PMS7003;57634;51.136;17.024;2023-08-12T00:24:27;11;11;9
70243;PMS7003;57634;51.136;17.024;2023-08-12T00:27:29;11;10;9
70243;PMS7003;57634;51.136;17.024;2023-08-12T00:30:58;11;10;9
70243;PMS7003;57634;51.136;17.024;2023-08-12T00:33:59;12;11;8
70243;PMS7003;57634;51.136;17.024;2023-08-12T00:37:01;10;10;8
70243;PMS7003;57634;51.136;17.024;2023-08-12T00:40:03;14;14;10
70243;PMS7003;57634;51.136;17.024;2023-08-12T00:43:06;12;12;10
70243;PMS7003;57634;51.136;17.024;2023-08-12T00:46:10;14;13;9
70243;PMS7003;57634;51.136;17.024;2023-08-12T00:49:13;13;13;10
70243;PMS7003;57634;51.136;17.024;2023-08-12T00:52:14;11;9;7
70243;PMS7003;57634;51.136;17.024;2023-08-12T00:55:18;14;12;10
70243;PMS7003;57634;51.136;17.024;2023-08-12T00:58:19;16;13;11
70243;PMS7003;57634;51.136;17.024;2023-08-12T01:01:21;17;16;11
70243;PMS7003;57634;51.136;17.024;2023-08-12T01:04:22;13;13;10
70243;PMS7003;57634;51.136;17.024;2023-08-12T01:07:52;11;11;8
70243;PMS7003;57634;51.136;17.024;2023-08-12T01:10:55;13;12;10
70243;PMS7003;57634;51.136;17.024;2023-08-12T01:14:05;13;12;9
70243;PMS7003;57634;51.136;17.024;2023-08-12T01:17:14;13;13;10
70243;PMS7003;57634;51.136;17.024;2023-08-12T01:20:16;11;11;9
70243;PMS7003;57634;51.136;17.024;2023-08-12T01:23:18;12;12;9
70243;PMS7003;57634;51.136;17.024;2023-08-12T01:26:21;10;9;8
70243;PMS7003;57634;51.136;17.024;2023-08-12T01:29:22;11;11;8
70243;PMS7003;57634;51.136;17.024;2023-08-12T01:39:15;12;12;10
70243;PMS7003;57634;51.136;17.024;2023-08-12T01:42:20;12;12;10
70243;PMS7003;57634;51.136;17.024;2023-08-12T01:45:22;15;13;10
70243;PMS7003;57634;51.136;17.024;2023-08-12T01:48:24;12;12;10
70243;PMS7003;57634;51.136;17.024;2023-08-12T01:51:25;12;12;10
70243;PMS7003;57634;51.136;17.024;2023-08-12T01:54:26;12;12;9
70243;PMS7003;57634;51.136;17.024;2023-08-12T01:57:35;12;12;9
70243;PMS7003;57634;51.136;17.024;2023-08-12T02:00:37;14;12;10
70243;PMS7003;57634;51.136;17.024;2023-08-12T02:04:04;13;12;10
70243;PMS7003;57634;51.136;17.024;2023-08-12T02:07:06;12;12;11
70243;PMS7003;57634;51.136;17.024;2023-08-12T02:10:07;14;14;10
70243;PMS7003;57634;51.136;17.024;2023-08-12T02:13:09;12;12;9
70243;PMS7003;57634;51.136;17.024;2023-08-12T02:16:10;14;13;10
70243;PMS7003;57634;51.136;17.024;2023-08-12T02:19:12;10;10;9
70243;PMS7003;57634;51.136;17.024;2023-08-12T02:22:13;11;11;9
70243;PMS7003;57634;51.136;17.024;2023-08-12T02:25:15;12;12;9
70243;PMS7003;57634;51.136;17.024;2023-08-12T02:28:16;11;11;9
70243;PMS7003;57634;51.136;17.024;2023-08-12T02:31:18;13;11;8
70243;PMS7003;57634;51.136;17.024;2023-08-12T02:34:19;13;12;9
70243;PMS7003;57634;51.136;17.024;2023-08-12T02:37:21;13;12;11
70243;PMS7003;57634;51.136;17.024;2023-08-12T02:40:22;12;12;9
70243;PMS7003;57634;51.136;17.024;2023-08-12T02:43:24;11;11;10
70243;PMS7003;57634;51.136;17.024;2023-08-12T02:46:54;9;9;8
70243;PMS7003;57634;51.136;17.024;2023-08-12T02:49:55;9;9;8
70243;PMS7003;57634;51.136;17.024;2023-08-12T02:52:56;12;12;8
70243;PMS7003;57634;51.136;17.024;2023-08-12T02:55:58;11;11;10
70243;PMS7003;57634;51.136;17.024;2023-08-12T02:59:00;11;11;9
70243;PMS7003;57634;51.136;17.024;2023-08-12T03:02:01;10;9;6
70243;PMS7003;57634;51.136;17.024;2023-08-12T03:05:03;14;13;11
70243;PMS7003;57634;51.136;17.024;2023-08-12T03:08:05;13;13;9
70243;PMS7003;57634;51.136;17.024;2023-08-12T03:11:06;12;12;9
70243;PMS7003;57634;51.136;17.024;2023-08-12T03:14:08;14;13;9
70243;PMS7003;57634;51.136;17.024;2023-08-12T03:17:10;12;11;9
70243;PMS7003;57634;51.136;17.024;2023-08-12T03:20:11;12;12;9
70243;PMS7003;57634;51.136;17.024;2023-08-12T03:23:14;13;13;10
70243;PMS7003;57634;51.136;17.024;2023-08-12T03:26:16;11;11;8
70243;PMS7003;57634;51.136;17.024;2023-08-12T03:29:43;12;12;9
70243;PMS7003;57634;51.136;17.024;2023-08-12T03:32:44;12;11;9
70243;PMS7003;57634;51.136;17.024;2023-08-12T03:35:46;12;12;9
70243;PMS7003;57634;51.136;17.024;2023-08-12T03:38:48;13;12;9
70243;PMS7003;57634;51.136;17.024;2023-08-12T03:41:50;11;11;9
70243;PMS7003;57634;51.136;17.024;2023-08-12T03:44:52;12;12;9
70243;PMS7003;57634;51.136;17.024;2023-08-12T03:47:53;11;10;9
70243;PMS7003;57634;51.136;17.024;2023-08-12T03:50:55;10;10;9
70243;PMS7003;57634;51.136;17.024;2023-08-12T03:53:57;13;12;9
70243;PMS7003;57634;51.136;17.024;2023-08-12T03:57:02;11;11;10
70243;PMS7003;57634;51.136;17.024;2023-08-12T04:00:04;13;13;10
70243;PMS7003;57634;51.136;17.024;2023-08-12T04:03:08;11;11;9
70243;PMS7003;57634;51.136;17.024;2023-08-12T04:06:37;11;11;9
70243;PMS7003;57634;51.136;17.024;2023-08-12T04:09:39;12;11;9
70243;PMS7003;57634;51.136;17.024;2023-08-12T04:12:40;13;12;9
70243;PMS7003;57634;51.136;17.024;2023-08-12T04:15:47;11;11;9
70243;PMS7003;57634;51.136;17.024;2023-08-12T04:18:50;15;12;9
70243;PMS7003;57634;51.136;17.024;2023-08-12T04:21:52;16;14;10
70243;PMS7003;57634;51.136;17.024;2023-08-12T04:24:53;12;12;9
70243;PMS7003;57634;51.136;17.024;2023-08-12T04:27:55;13;11;9
70243;PMS7003;57634;51.136;17.024;2023-08-12T04:30:56;14;13;10
70243;PMS7003;57634;51.136;17.024;2023-08-12T04:33:58;14;14;10
70243;PMS7003;57634;51.136;17.024;2023-08-12T04:36:59;14;14;10
70243;PMS7003;57634;51.136;17.024;2023-08-12T04:40:01;14;12;9
70243;PMS7003;57634;51.136;17.024;2023-08-12T04:43:33;14;13;9
70243;PMS7003;57634;51.136;17.024;2023-08-12T04:46:34;14;14;10
70243;PMS7003;57634;51.136;17.024;2023-08-12T04:49:36;12;12;9
70243;PMS7003;57634;51.136;17.024;2023-08-12T04:52:37;11;8;7
70243;PMS7003;57634;51.136;17.024;2023-08-12T04:55:39;14;13;9
70243;PMS7003;57634;51.136;17.024;2023-08-12T04:58:40;13;12;9
70243;PMS7003;57634;51.136;17.024;2023-08-12T05:01:42;10;10;9
70243;PMS7003;57634;51.136;17.024;2023-08-12T05:04:46;10;10;8
70243;PMS7003;57634;51.136;17.024;2023-08-12T05:07:49;11;11;9
70243;PMS7003;57634;51.136;17.024;2023-08-12T05:10:50;11;11;9
70243;PMS7003;57634;51.136;17.024;2023-08-12T05:13:51;12;11;9
70243;PMS7003;57634;51.136;17.024;2023-08-12T05:16:53;10;10;8
70243;PMS7003;57634;51.136;17.024;2023-08-12T05:19:58;10;9;8
70243;PMS7003;57634;51.136;17.024;2023-08-12T05:23:25;8;8;6
70243;PMS7003;57634;51.136;17.024;2023-08-12T05:26:27;10;9;7
70243;PMS7003;57634;51.136;17.024;2023-08-12T05:29:28;6;6;5
70243;PMS7003;57634;51.136;17.024;2023-08-12T05:32:29;7;7;6
70243;PMS7003;57634;51.136;17.024;2023-08-12T05:35:34;8;8;6
70243;PMS7003;57634;51.136;17.024;2023-08-12T05:38:37;5;5;4
70243;PMS7003;57634;51.136;17.024;2023-08-12T05:41:38;6;6;5
70243;PMS7003;57634;51.136;17.024;2023-08-12T05:44:40;6;6;5
70243;PMS7003;57634;51.136;17.024;2023-08-12T05:47:43;7;5;4
70243;PMS7003;57634;51.136;17.024;2023-08-12T05:50:44;5;5;3
70243;PMS7003;57634;51.136;17.024;2023-08-12T05:53:46;4;4;4
70243;PMS7003;57634;51.136;17.024;2023-08-12T05:56:50;5;5;4
70243;PMS7003;57634;51.136;17.024;2023-08-12T06:00:18;6;4;3
70243;PMS7003;57634;51.136;17.024;2023-08-12T06:03:19;4;4;3
70243;PMS7003;57634;51.136;17.024;2023-08-12T06:06:21;5;4;3
70243;PMS7003;57634;51.136;17.024;2023-08-12T06:09:23;6;5;4
70243;PMS7003;57634;51.136;17.024;2023-08-12T06:12:25;4;4;3
70243;PMS7003;57634;51.136;17.024;2023-08-12T06:15:26;5;4;3
70243;PMS7003;57634;51.136;17.024;2023-08-12T06:18:28;5;5;4
70243;PMS7003;57634;51.136;17.024;2023-08-12T06:21:30;4;4;4
70243;PMS7003;57634;51.136;17.024;2023-08-12T06:27:38;3;3;3
70243;PMS7003;57634;51.136;17.024;2023-08-12T06:30:39;3;3;3
70243;PMS7003;57634;51.136;17.024;2023-08-12T06:33:40;4;4;3
70243;PMS7003;57634;51.136;17.024;2023-08-12T06:37:10;4;4;3
70243;PMS7003;57634;51.136;17.024;2023-08-12T06:40:12;4;3;2
70243;PMS7003;57634;51.136;17.024;2023-08-12T06:43:13;4;4;3
70243;PMS7003;57634;51.136;17.024;2023-08-12T06:46:15;4;4;3
70243;PMS7003;57634;51.136;17.024;2023-08-12T06:49:16;3;3;2
70243;PMS7003;57634;51.136;17.024;2023-08-12T06:52:18;2;2;2
70243;PMS7003;57634;51.136;17.024;2023-08-12T06:55:20;2;2;1
70243;PMS7003;57634;51.136;17.024;2023-08-12T06:58:24;4;4;3
70243;PMS7003;57634;51.136;17.024;2023-08-12T07:01:26;2;2;1
70243;PMS7003;57634;51.136;17.024;2023-08-12T07:04:27;2;2;2
70243;PMS7003;57634;51.136;17.024;2023-08-12T07:07:28;1;1;1
70243;PMS7003;57634;51.136;17.024;2023-08-12T07:10:32;3;3;2
70243;PMS7003;57634;51.136;17.024;2023-08-12T07:13:34;1;1;1
70243;PMS7003;57634;51.136;17.024;2023-08-12T07:17:04;2;2;2
70243;PMS7003;57634;51.136;17.024;2023-08-12T07:20:06;3;3;2
70243;PMS7003;57634;51.136;17.024;2023-08-12T07:23:08;2;1;1
70243;PMS7003;57634;51.136;17.024;2023-08-12T07:26:10;2;2;1
70243;PMS7003;57634;51.136;17.024;2023-08-12T07:29:12;2;2;1
70243;PMS7003;57634;51.136;17.024;2023-08-12T07:32:13;1;1;1
70243;PMS7003;57634;51.136;17.024;2023-08-12T07:35:15;2;2;2
70243;PMS7003;57634;51.136;17.024;2023-08-12T07:38:16;2;2;2
70243;PMS7003;57634;51.136;17.024;2023-08-12T07:41:18;2;2;2
70243;PMS7003;57634;51.136;17.024;2023-08-12T07:44:19;2;2;2
70243;PMS7003;57634;51.136;17.024;2023-08-12T07:47:21;2;2;2
70243;PMS7003;57634;51.136;17.024;2023-08-12T07:50:22;2;2;1
70243;PMS7003;57634;51.136;17.024;2023-08-12T07:53:24;4;4;3
70243;PMS7003;57634;51.136;17.024;2023-08-12T07:56:27;2;2;1
70243;PMS7003;57634;51.136;17.024;2023-08-12T07:59:54;2;2;1
70243;PMS7003;57634;51.136;17.024;2023-08-12T08:02:55;2;1;1
70243;PMS7003;57634;51.136;17.024;2023-08-12T08:05:57;3;3;2
70243;PMS7003;57634;51.136;17.024;2023-08-12T08:08:58;2;2;1
70243;PMS7003;57634;51.136;17.024;2023-08-12T08:12:04;2;2;2
70243;PMS7003;57634;51.136;17.024;2023-08-12T08:15:08;2;2;1
70243;PMS7003;57634;51.136;17.024;2023-08-12T08:18:10;3;3;3
70243;PMS7003;57634;51.136;17.024;2023-08-12T08:21:12;3;3;3
70243;PMS7003;57634;51.136;17.024;2023-08-12T08:24:19;2;2;1
70243;PMS7003;57634;51.136;17.024;2023-08-12T08:27:20;2;2;2
70243;PMS7003;57634;51.136;17.024;2023-08-12T08:30:22;2;2;1
70243;PMS7003;57634;51.136;17.024;2023-08-12T08:33:52;3;3;2
70243;PMS7003;57634;51.136;17.024;2023-08-12T08:36:54;3;3;2
70243;PMS7003;57634;51.136;17.024;2023-08-12T08:39:56;2;2;2
70243;PMS7003;57634;51.136;17.024;2023-08-12T08:43:02;2;2;1
70243;PMS7003;57634;51.136;17.024;2023-08-12T08:46:08;2;2;1
70243;PMS7003;57634;51.136;17.024;2023-08-12T08:49:09;3;3;3
70243;PMS7003;57634;51.136;17.024;2023-08-12T08:52:12;2;2;2
70243;PMS7003;57634;51.136;17.024;2023-08-12T08:55:15;3;3;1
70243;PMS7003;57634;51.136;17.024;2023-08-12T08:58:17;1;1;1
70243;PMS7003;57634;51.136;17.024;2023-08-12T09:01:23;1;1;1
70243;PMS7003;57634;51.136;17.024;2023-08-12T09:04:25;2;2;2
70243;PMS7003;57634;51.136;17.024;2023-08-12T09:07:53;2;2;2
70243;PMS7003;57634;51.136;17.024;2023-08-12T09:10:56;1;1;1
70243;PMS7003;57634;51.136;17.024;2023-08-12T09:13:59;4;3;2
70243;PMS7003;57634;51.136;17.024;2023-08-12T09:17:00;1;1;1
70243;PMS7003;57634;51.136;17.024;2023-08-12T09:20:03;2;2;1
70243;PMS7003;57634;51.136;17.024;2023-08-12T09:23:16;2;1;1
70243;PMS7003;57634;51.136;17.024;2023-08-12T09:26:20;0;0;0
70243;PMS7003;57634;51.136;17.024;2023-08-12T09:33:02;0;0;0
70243;PMS7003;57634;51.136;17.024;2023-08-12T09:36:07;0;0;0
70243;PMS7003;57634;51.136;17.024;2023-08-12T09:39:09;1;1;1
70243;PMS7003;57634;51.136;17.024;2023-08-12T09:42:12;3;0;0
70243;PMS7003;57634;51.136;17.024;2023-08-12T09:45:14;1;1;1
70243;PMS7003;57634;51.136;17.024;2023-08-12T09:48:17;1;1;0
70243;PMS7003;57634;51.136;17.024;2023-08-12T09:51:21;2;2;1
70243;PMS7003;57634;51.136;17.024;2023-08-12T09:54:25;1;1;1
70243;PMS7003;57634;51.136;17.024;2023-08-12T09:57:28;1;1;1
70243;PMS7003;57634;51.136;17.024;2023-08-12T10:00:34;2;2;1
70243;PMS7003;57634;51.136;17.024;2023-08-12T10:03:36;2;2;2
70243;PMS7003;57634;51.136;17.024;2023-08-12T10:07:03;3;3;2
70243;PMS7003;57634;51.136;17.024;2023-08-12T10:10:06;2;2;1
70243;PMS7003;57634;51.136;17.024;2023-08-12T10:13:10;2;2;1
70243;PMS7003;57634;51.136;17.024;2023-08-12T10:16:13;3;3;3
70243;PMS7003;57634;51.136;17.024;2023-08-12T10:19:16;2;2;2
70243;PMS7003;57634;51.136;17.024;2023-08-12T10:22:18;3;3;2
70243;PMS7003;57634;51.136;17.024;2023-08-12T10:25:20;4;3;2
70243;PMS7003;57634;51.136;17.024;2023-08-12T10:28:24;4;3;3
70243;PMS7003;57634;51.136;17.024;2023-08-12T10:31:29;3;3;3
70243;PMS7003;57634;51.136;17.024;2023-08-12T10:34:32;3;3;2
70243;PMS7003;57634;51.136;17.024;2023-08-12T10:38:02;2;2;2
70243;PMS7003;57634;51.136;17.024;2023-08-12T10:44:19;3;3;2
70243;PMS7003;57634;51.136;17.024;2023-08-12T10:47:23;2;2;2
70243;PMS7003;57634;51.136;17.024;2023-08-12T10:50:25;3;1;1
70243;PMS7003;57634;51.136;17.024;2023-08-12T10:53:28;1;1;1
70243;PMS7003;57634;51.136;17.024;2023-08-12T11:00:18;1;1;1
70243;PMS7003;57634;51.136;17.024;2023-08-12T11:03:24;2;2;2
70243;PMS7003;57634;51.136;17.024;2023-08-12T11:06:26;2;2;1
70243;PMS7003;57634;51.136;17.024;2023-08-12T11:09:28;1;1;1
70243;PMS7003;57634;51.136;17.024;2023-08-12T11:12:30;2;2;2
70243;PMS7003;57634;51.136;17.024;2023-08-12T11:15:37;1;1;1
70243;PMS7003;57634;51.136;17.024;2023-08-12T11:18:42;2;2;2
70243;PMS7003;57634;51.136;17.024;2023-08-12T11:21:44;1;0;0
70243;PMS7003;57634;51.136;17.024;2023-08-12T11:24:45;1;1;0
70243;PMS7003;57634;51.136;17.024;2023-08-12T11:27:48;3;2;1
70243;PMS7003;57634;51.136;17.024;2023-08-12T11:31:15;1;1;1
70243;PMS7003;57634;51.136;17.024;2023-08-12T11:34:17;2;2;2
70243;PMS7003;57634;51.136;17.024;2023-08-12T11:37:19;2;2;1
70243;PMS7003;57634;51.136;17.024;2023-08-12T11:40:20;1;1;1
70243;PMS7003;57634;51.136;17.024;2023-08-12T11:43:23;2;2;1
70243;PMS7003;57634;51.136;17.024;2023-08-12T11:46:25;2;2;1
70243;PMS7003;57634;51.136;17.024;2023-08-12T11:49:27;1;1;0
70243;PMS7003;57634;51.136;17.024;2023-08-12T11:52:28;1;1;1
70243;PMS7003;57634;51.136;17.024;2023-08-12T11:55:29;2;2;1
70243;PMS7003;57634;51.136;17.024;2023-08-12T12:01:39;1;1;1
70243;PMS7003;57634;51.136;17.024;2023-08-12T12:04:41;3;2;2
70243;PMS7003;57634;51.136;17.024;2023-08-12T12:08:09;2;2;1
70243;PMS7003;57634;51.136;17.024;2023-08-12T12:11:11;2;2;1
70243;PMS7003;57634;51.136;17.024;2023-08-12T12:14:12;2;1;1
70243;PMS7003;57634;51.136;17.024;2023-08-12T12:17:14;2;2;2
70243;PMS7003;57634;51.136;17.024;2023-08-12T12:20:16;4;1;1
70243;PMS7003;57634;51.136;17.024;2023-08-12T12:23:18;1;1;1
70243;PMS7003;57634;51.136;17.024;2023-08-12T12:26:19;1;1;1
70243;PMS7003;57634;51.136;17.024;2023-08-12T12:29:20;2;2;1
70243;PMS7003;57634;51.136;17.024;2023-08-12T12:32:22;2;2;1
70243;PMS7003;57634;51.136;17.024;2023-08-12T12:35:29;3;2;2
70243;PMS7003;57634;51.136;17.024;2023-08-12T12:38:33;2;2;1
70243;PMS7003;57634;51.136;17.024;2023-08-12T12:41:37;2;2;1
70243;PMS7003;57634;51.136;17.024;2023-08-12T12:45:06;2;2;1
70243;PMS7003;57634;51.136;17.024;2023-08-12T12:48:09;2;2;1
70243;PMS7003;57634;51.136;17.024;2023-08-12T12:51:11;2;2;2
70243;PMS7003;57634;51.136;17.024;2023-08-12T12:54:13;2;2;1
70243;PMS7003;57634;51.136;17.024;2023-08-12T12:57:16;3;3;2
70243;PMS7003;57634;51.136;17.024;2023-08-12T13:00:20;1;1;1
70243;PMS7003;57634;51.136;17.024;2023-08-12T13:03:22;2;2;1
70243;PMS7003;57634;51.136;17.024;2023-08-12T13:06:24;2;2;1
70243;PMS7003;57634;51.136;17.024;2023-08-12T13:09:27;2;2;1
70243;PMS7003;57634;51.136;17.024;2023-08-12T13:12:31;1;1;1
70243;PMS7003;57634;51.136;17.024;2023-08-12T13:15:33;2;2;1
70243;PMS7003;57634;51.136;17.024;2023-08-12T13:19:02;2;2;1
70243;PMS7003;57634;51.136;17.024;2023-08-12T13:22:03;2;2;1
70243;PMS7003;57634;51.136;17.024;2023-08-12T13:25:05;8;7;5
70243;PMS7003;57634;51.136;17.024;2023-08-12T13:28:07;3;3;2
70243;PMS7003;57634;51.136;17.024;2023-08-12T13:31:08;1;1;1
70243;PMS7003;57634;51.136;17.024;2023-08-12T13:34:10;2;2;2
70243;PMS7003;57634;51.136;17.024;2023-08-12T13:37:17;4;2;1
70243;PMS7003;57634;51.136;17.024;2023-08-12T13:40:20;4;4;3
70243;PMS7003;57634;51.136;17.024;2023-08-12T13:43:21;2;2;2
70243;PMS7003;57634;51.136;17.024;2023-08-12T13:46:27;2;2;2
70243;PMS7003;57634;51.136;17.024;2023-08-12T13:49:29;2;2;1
70243;PMS7003;57634;51.136;17.024;2023-08-12T13:52:59;2;2;1
70243;PMS7003;57634;51.136;17.024;2023-08-12T13:56:01;2;2;2
70243;PMS7003;57634;51.136;17.024;2023-08-12T13:59:02;2;2;2
70243;PMS7003;57634;51.136;17.024;2023-08-12T14:02:04;2;2;2
70243;PMS7003;57634;51.136;17.024;2023-08-12T14:05:07;3;2;2
70243;PMS7003;57634;51.136;17.024;2023-08-12T14:08:10;4;3;3
70243;PMS7003;57634;51.136;17.024;2023-08-12T14:11:14;1;1;1
70243;PMS7003;57634;51.136;17.024;2023-08-12T14:14:16;2;2;1
70243;PMS7003;57634;51.136;17.024;2023-08-12T14:17:20;4;4;3
70243;PMS7003;57634;51.136;17.024;2023-08-12T14:20:24;4;4;4
70243;PMS7003;57634;51.136;17.024;2023-08-12T14:23:26;2;2;2
70243;PMS7003;57634;51.136;17.024;2023-08-12T14:26:56;3;3;2
70243;PMS7003;57634;51.136;17.024;2023-08-12T14:29:57;3;3;2
70243;PMS7003;57634;51.136;17.024;2023-08-12T14:32:58;2;2;2
70243;PMS7003;57634;51.136;17.024;2023-08-12T14:36:00;3;2;2
70243;PMS7003;57634;51.136;17.024;2023-08-12T14:39:01;3;3;2
70243;PMS7003;57634;51.136;17.024;2023-08-12T14:42:03;3;3;2
70243;PMS7003;57634;51.136;17.024;2023-08-12T14:45:05;3;3;2
70243;PMS7003;57634;51.136;17.024;2023-08-12T14:48:07;3;3;2
70243;PMS7003;57634;51.136;17.024;2023-08-12T14:51:08;2;2;2
70243;PMS7003;57634;51.136;17.024;2023-08-12T14:54:10;3;2;2
70243;PMS7003;57634;51.136;17.024;2023-08-12T14:57:12;3;2;2
70243;PMS7003;57634;51.136;17.024;2023-08-12T15:00:17;4;3;2
70243;PMS7003;57634;51.136;17.024;2023-08-12T15:03:18;3;3;2
70243;PMS7003;57634;51.136;17.024;2023-08-12T15:06:46;4;4;3
70243;PMS7003;57634;51.136;17.024;2023-08-12T15:09:47;3;3;2
70243;PMS7003;57634;51.136;17.024;2023-08-12T15:12:48;4;4;3
70243;PMS7003;57634;51.136;17.024;2023-08-12T15:15:50;3;3;2
70243;PMS7003;57634;51.136;17.024;2023-08-12T15:18:53;3;3;2
70243;PMS7003;57634;51.136;17.024;2023-08-12T15:21:54;3;2;2
70243;PMS7003;57634;51.136;17.024;2023-08-12T15:24:56;4;4;2
70243;PMS7003;57634;51.136;17.024;2023-08-12T15:27:58;4;3;2
70243;PMS7003;57634;51.136;17.024;2023-08-12T15:30:59;3;2;1
70243;PMS7003;57634;51.136;17.024;2023-08-12T15:34:01;3;3;2
70243;PMS7003;57634;51.136;17.024;2023-08-12T15:37:03;2;2;2
70243;PMS7003;57634;51.136;17.024;2023-08-12T15:40:06;3;3;2
70243;PMS7003;57634;51.136;17.024;2023-08-12T15:43:10;3;3;2
70243;PMS7003;57634;51.136;17.024;2023-08-12T15:46:38;2;2;2
70243;PMS7003;57634;51.136;17.024;2023-08-12T15:49:45;2;2;1
70243;PMS7003;57634;51.136;17.024;2023-08-12T15:52:47;2;2;2
70243;PMS7003;57634;51.136;17.024;2023-08-12T15:55:48;2;2;2
70243;PMS7003;57634;51.136;17.024;2023-08-12T15:58:49;3;3;2
70243;PMS7003;57634;51.136;17.024;2023-08-12T16:01:52;2;2;1
70243;PMS7003;57634;51.136;17.024;2023-08-12T16:04:57;2;2;2
70243;PMS7003;57634;51.136;17.024;2023-08-12T16:07:58;3;3;2
70243;PMS7003;57634;51.136;17.024;2023-08-12T16:11:00;3;2;2
70243;PMS7003;57634;51.136;17.024;2023-08-12T16:14:01;3;2;2
70243;PMS7003;57634;51.136;17.024;2023-08-12T16:17:05;4;4;3
70243;PMS7003;57634;51.136;17.024;2023-08-12T16:20:35;3;3;3
70243;PMS7003;57634;51.136;17.024;2023-08-12T16:23:37;4;3;2
70243;PMS7003;57634;51.136;17.024;2023-08-12T16:26:38;3;2;1
70243;PMS7003;57634;51.136;17.024;2023-08-12T16:29:40;2;2;2
70243;PMS7003;57634;51.136;17.024;2023-08-12T16:32:41;3;3;2
70243;PMS7003;57634;51.136;17.024;2023-08-12T16:35:43;3;3;2
70243;PMS7003;57634;51.136;17.024;2023-08-12T16:38:48;3;3;2
70243;PMS7003;57634;51.136;17.024;2023-08-12T16:41:49;3;3;3
70243;PMS7003;57634;51.136;17.024;2023-08-12T16:44:51;2;2;2
70243;PMS7003;57634;51.136;17.024;2023-08-12T16:47:53;3;3;2
70243;PMS7003;57634;51.136;17.024;2023-08-12T16:50:55;2;2;2
70243;PMS7003;57634;51.136;17.024;2023-08-12T16:56:19;4;4;3
70243;PMS7003;57634;51.136;17.024;2023-08-12T16:59:20;2;2;2
70243;PMS7003;57634;51.136;17.024;2023-08-12T17:02:22;4;4;3
70243;PMS7003;57634;51.136;17.024;2023-08-12T17:05:23;3;3;3
70243;PMS7003;57634;51.136;17.024;2023-08-12T17:08:25;4;4;3
70243;PMS7003;57634;51.136;17.024;2023-08-12T17:11:26;3;2;2
70243;PMS7003;57634;51.136;17.024;2023-08-12T17:14:27;3;3;2
70243;PMS7003;57634;51.136;17.024;2023-08-12T17:17:30;3;3;2
70243;PMS7003;57634;51.136;17.024;2023-08-12T17:20:32;3;3;3
70243;PMS7003;57634;51.136;17.024;2023-08-12T17:23:33;4;4;3
70243;PMS7003;57634;51.136;17.024;2023-08-12T17:26:35;2;2;1
70243;PMS7003;57634;51.136;17.024;2023-08-12T17:29:37;2;2;2
70243;PMS7003;57634;51.136;17.024;2023-08-12T17:32:38;3;3;3
70243;PMS7003;57634;51.136;17.024;2023-08-12T17:36:05;3;3;3
70243;PMS7003;57634;51.136;17.024;2023-08-12T17:39:07;4;3;3
70243;PMS7003;57634;51.136;17.024;2023-08-12T17:42:12;3;3;3
70243;PMS7003;57634;51.136;17.024;2023-08-12T17:45:13;3;3;2
70243;PMS7003;57634;51.136;17.024;2023-08-12T17:48:17;4;4;3
70243;PMS7003;57634;51.136;17.024;2023-08-12T17:51:19;4;4;3
70243;PMS7003;57634;51.136;17.024;2023-08-12T17:54:20;3;3;3
70243;PMS7003;57634;51.136;17.024;2023-08-12T17:57:22;3;3;2
70243;PMS7003;57634;51.136;17.024;2023-08-12T18:00:24;4;4;3
70243;PMS7003;57634;51.136;17.024;2023-08-12T18:03:25;6;6;5
70243;PMS7003;57634;51.136;17.024;2023-08-12T18:06:27;6;6;5
70243;PMS7003;57634;51.136;17.024;2023-08-12T18:09:28;4;4;3
70243;PMS7003;57634;51.136;17.024;2023-08-12T18:12:30;7;7;4
70243;PMS7003;57634;51.136;17.024;2023-08-12T18:15:58;6;5;4
70243;PMS7003;57634;51.136;17.024;2023-08-12T18:19:00;5;5;4
70243;PMS7003;57634;51.136;17.024;2023-08-12T18:22:02;5;5;4
70243;PMS7003;57634;51.136;17.024;2023-08-12T18:25:03;4;4;4
70243;PMS7003;57634;51.136;17.024;2023-08-12T18:28:05;3;3;3
70243;PMS7003;57634;51.136;17.024;2023-08-12T18:31:08;4;4;3
70243;PMS7003;57634;51.136;17.024;2023-08-12T18:34:10;5;5;4
70243;PMS7003;57634;51.136;17.024;2023-08-12T18:37:11;5;4;3
70243;PMS7003;57634;51.136;17.024;2023-08-12T18:40:14;5;5;4
70243;PMS7003;57634;51.136;17.024;2023-08-12T18:43:16;5;5;4
70243;PMS7003;57634;51.136;17.024;2023-08-12T18:46:18;6;6;5
70243;PMS7003;57634;51.136;17.024;2023-08-12T18:49:19;5;5;4
70243;PMS7003;57634;51.136;17.024;2023-08-12T18:52:20;4;4;4
70243;PMS7003;57634;51.136;17.024;2023-08-12T18:55:48;5;4;4
70243;PMS7003;57634;51.136;17.024;2023-08-12T18:58:50;5;5;4
70243;PMS7003;57634;51.136;17.024;2023-08-12T19:01:54;7;7;6
70243;PMS7003;57634;51.136;17.024;2023-08-12T19:04:58;6;6;4
70243;PMS7003;57634;51.136;17.024;2023-08-12T19:07:59;6;6;4
70243;PMS7003;57634;51.136;17.024;2023-08-12T19:11:02;6;5;5
70243;PMS7003;57634;51.136;17.024;2023-08-12T19:14:05;8;6;5
70243;PMS7003;57634;51.136;17.024;2023-08-12T19:17:07;7;6;5
70243;PMS7003;57634;51.136;17.024;2023-08-12T19:20:09;7;6;6
70243;PMS7003;57634;51.136;17.024;2023-08-12T19:23:12;7;6;5
70243;PMS7003;57634;51.136;17.024;2023-08-12T19:26:15;7;6;5
70243;PMS7003;57634;51.136;17.024;2023-08-12T19:29:44;6;6;5
70243;PMS7003;57634;51.136;17.024;2023-08-12T19:32:50;7;6;4
70243;PMS7003;57634;51.136;17.024;2023-08-12T19:35:52;6;6;5
70243;PMS7003;57634;51.136;17.024;2023-08-12T19:38:55;8;8;6
70243;PMS7003;57634;51.136;17.024;2023-08-12T19:41:58;7;6;5
70243;PMS7003;57634;51.136;17.024;2023-08-12T19:45:02;9;7;5
70243;PMS7003;57634;51.136;17.024;2023-08-12T19:48:05;6;6;5
70243;PMS7003;57634;51.136;17.024;2023-08-12T19:51:07;7;7;6
70243;PMS7003;57634;51.136;17.024;2023-08-12T19:54:13;7;7;5
70243;PMS7003;57634;51.136;17.024;2023-08-12T19:57:14;8;8;6
70243;PMS7003;57634;51.136;17.024;2023-08-12T20:00:44;5;5;4
70243;PMS7003;57634;51.136;17.024;2023-08-12T20:03:46;7;7;5
70243;PMS7003;57634;51.136;17.024;2023-08-12T20:06:48;7;6;5
70243;PMS7003;57634;51.136;17.024;2023-08-12T20:09:49;7;6;5
70243;PMS7003;57634;51.136;17.024;2023-08-12T20:12:56;8;7;6
70243;PMS7003;57634;51.136;17.024;2023-08-12T20:16:03;6;5;5
70243;PMS7003;57634;51.136;17.024;2023-08-12T20:19:05;7;7;5
70243;PMS7003;57634;51.136;17.024;2023-08-12T20:22:07;5;5;4
70243;PMS7003;57634;51.136;17.024;2023-08-12T20:25:08;5;5;3
70243;PMS7003;57634;51.136;17.024;2023-08-12T20:28:10;5;5;4
70243;PMS7003;57634;51.136;17.024;2023-08-12T20:31:12;5;5;4
70243;PMS7003;57634;51.136;17.024;2023-08-12T20:34:41;5;5;4
70243;PMS7003;57634;51.136;17.024;2023-08-12T20:37:43;6;6;4